Time;durP1;ratioP1;P1;durP2;ratioP2;P2;SDS_P1;SDS_P2;PMS_P1;PMS_P2;Temp;Humidity;BMP_temperature;BMP_pressure;BME280_temperature;BME280_humidity;BME280_pressure;Samples;Min_cycle;Max_cycle;Signal;HPM_P1;HPM_P2
2021/03/05 00:00:50;;;;;;;28.20;12.60;;;4.70;99.90;;;;;;5093007;28;20624;-69
2021/03/05 00:03:15;;;;;;;22.20;11.97;;;5.00;99.90;;;;;;5093060;28;20175;-68
2021/03/05 00:05:43;;;;;;;22.57;12.83;;;5.00;99.90;;;;;;5093346;28;20246;-69
2021/03/05 00:08:10;;;;;;;21.17;10.73;;;5.10;99.90;;;;;;5092941;28;20313;-69
2021/03/05 00:10:39;;;;;;;19.05;10.77;;;5.20;65.20;;;;;;5095126;28;20178;-69
2021/03/05 00:13:05;;;;;;;19.65;11.00;;;5.20;40.20;;;;;;5097185;28;20194;-69
2021/03/05 00:15:34;;;;;;;18.73;10.50;;;5.30;35.00;;;;;;5097457;28;20175;-68
2021/03/05 00:18:00;;;;;;;25.83;10.75;;;5.30;16.50;;;;;;5097392;28;20203;-68
2021/03/05 00:20:27;;;;;;;19.95;10.80;;;5.10;56.50;;;;;;5097103;28;20163;-69
2021/03/05 00:22:53;;;;;;;23.45;11.38;;;5.20;23.00;;;;;;5097128;28;20191;-69
2021/03/05 00:25:19;;;;;;;16.70;9.52;;;5.20;26.30;;;;;;5097042;28;20174;-68
2021/03/05 00:27:45;;;;;;;17.70;11.20;;;5.10;1.00;;;;;;5096989;28;20171;-68
2021/03/05 00:30:12;;;;;;;20.93;11.00;;;4.80;54.20;;;;;;5096946;28;20175;-69
2021/03/05 00:32:38;;;;;;;24.48;10.10;;;4.50;53.50;;;;;;5096824;28;20191;-69
2021/03/05 00:35:07;;;;;;;18.80;11.77;;;4.70;60.20;;;;;;5096852;28;20214;-69
2021/03/05 00:37:33;;;;;;;22.98;10.90;;;4.80;99.90;;;;;;5096643;28;20230;-69
2021/03/05 00:39:59;;;;;;;25.50;11.98;;;4.60;77.40;;;;;;5096744;28;20197;-68
2021/03/05 00:42:25;;;;;;;40.80;12.20;;;4.50;99.90;;;;;;5096906;28;20274;-69
2021/03/05 00:44:51;;;;;;;23.93;11.80;;;4.70;99.90;;;;;;5096925;28;20168;-69
2021/03/05 00:47:16;;;;;;;24.73;12.85;;;5.00;99.90;;;;;;5096664;28;20237;-69
2021/03/05 00:49:42;;;;;;;18.73;10.93;;;5.10;99.90;;;;;;5096887;28;20261;-69
2021/03/05 00:52:08;;;;;;;19.77;11.73;;;4.90;94.00;;;;;;5096759;28;20782;-69
2021/03/05 00:54:33;;;;;;;26.23;11.23;;;5.00;84.20;;;;;;5096599;28;20171;-68
2021/03/05 00:56:59;;;;;;;20.23;10.80;;;4.90;94.30;;;;;;5096629;28;20186;-68
2021/03/05 00:59:24;;;;;;;14.40;8.70;;;4.80;99.90;;;;;;5096407;28;20169;-68
2021/03/05 01:01:50;;;;;;;22.73;10.20;;;4.80;56.90;;;;;;5096236;28;20212;-69
2021/03/05 01:04:15;;;;;;;21.40;8.80;;;4.80;50.80;;;;;;5096294;28;20175;-69
2021/03/05 01:06:41;;;;;;;17.30;8.37;;;4.90;93.10;;;;;;5096284;28;20167;-68
2021/03/05 01:09:06;;;;;;;17.43;7.07;;;4.90;44.20;;;;;;5096211;28;20682;-68
2021/03/05 01:11:32;;;;;;;20.70;8.23;;;4.80;45.20;;;;;;5096125;28;20193;-68
2021/03/05 01:13:58;;;;;;;17.57;8.40;;;4.70;95.90;;;;;;5096639;28;20387;-69
2021/03/05 01:16:23;;;;;;;25.13;8.50;;;4.60;93.80;;;;;;5096091;28;20539;-69
2021/03/05 01:18:49;;;;;;;15.53;8.03;;;4.50;99.90;;;;;;5095901;28;20862;-69
2021/03/05 01:21:15;;;;;;;18.83;7.73;;;4.60;99.90;;;;;;5095710;28;20187;-69
2021/03/05 01:23:40;;;;;;;24.27;7.40;;;4.50;99.90;;;;;;5095838;28;20167;-69
2021/03/05 01:26:08;;;;;;;16.23;6.73;;;4.60;99.90;;;;;;5095833;28;20171;-69
2021/03/05 01:28:34;;;;;;;23.15;5.60;;;4.50;99.90;;;;;;5095790;28;20251;-69
2021/03/05 01:30:59;;;;;;;19.27;6.60;;;4.50;92.90;;;;;;5095733;28;20259;-69
2021/03/05 01:33:25;;;;;;;13.83;5.17;;;4.70;72.40;;;;;;5095727;28;20179;-69
2021/03/05 01:35:50;;;;;;;12.70;6.00;;;4.70;42.20;;;;;;5095699;28;20178;-69
2021/03/05 01:38:16;;;;;;;17.10;4.90;;;4.80;1.00;;;;;;5095566;28;20195;-69
2021/03/05 01:40:45;;;;;;;14.03;6.60;;;4.80;1.00;;;;;;5095878;28;20509;-68
2021/03/05 01:43:13;;;;;;;18.52;5.43;;;4.80;1.00;;;;;;5095516;28;20597;-69
2021/03/05 01:45:39;;;;;;;11.32;5.68;;;4.60;1.00;;;;;;5095500;28;20171;-69
2021/03/05 01:48:13;;;;;;;15.47;5.97;;;4.70;82.70;;;;;;5095784;28;20636;-68
2021/03/05 01:51:11;;;;;;;12.60;5.75;;;4.60;39.40;;;;;;5095422;28;20682;-69
2021/03/05 01:53:37;;;;;;;12.90;5.97;;;4.40;63.30;;;;;;5095318;28;20172;-68
2021/03/05 01:56:05;;;;;;;8.47;4.77;;;4.60;6.90;;;;;;5095344;28;20171;-69
2021/03/05 01:58:30;;;;;;;13.65;4.82;;;4.60;90.90;;;;;;5095160;28;20445;-68
2021/03/05 02:01:04;;;;;;;14.70;6.10;;;4.50;99.90;;;;;;5095434;28;20633;-69
2021/03/05 02:03:31;;;;;;;12.40;4.47;;;4.70;99.90;;;;;;5095154;28;20242;-68
2021/03/05 02:05:57;;;;;;;14.13;4.85;;;4.60;40.50;;;;;;5095381;28;20176;-68
2021/03/05 02:08:22;;;;;;;12.00;5.00;;;4.60;73.00;;;;;;5094926;28;20195;-69
2021/03/05 02:10:48;;;;;;;14.83;4.57;;;4.60;15.30;;;;;;5095249;28;20250;-69
2021/03/05 02:13:14;;;;;;;16.93;5.73;;;4.60;17.50;;;;;;5095216;28;20175;-69
2021/03/05 02:15:40;;;;;;;16.30;5.43;;;4.70;33.70;;;;;;5094953;28;20739;-69
2021/03/05 02:18:23;;;;;;;13.37;4.63;;;4.80;8.80;;;;;;5095129;28;20199;-69
2021/03/05 02:21:33;;;;;;;21.35;5.10;;;4.70;1.00;;;;;;5095048;28;20159;-69
2021/03/05 02:24:32;;;;;;;17.15;5.40;;;4.30;8.00;;;;;;5095109;28;20151;-69
2021/03/05 02:27:24;;;;;;;16.60;5.18;;;4.10;96.50;;;;;;5095036;28;20160;-69
2021/03/05 02:30:27;;;;;;;18.08;5.78;;;4.10;99.90;;;;;;5095233;28;20164;-69
2021/03/05 02:33:16;;;;;;;14.77;6.20;;;4.00;99.90;;;;;;5094413;28;20270;-68
2021/03/05 02:35:43;;;;;;;11.85;6.50;;;4.20;99.90;;;;;;5094943;28;20554;-69
2021/03/05 02:38:10;;;;;;;11.15;6.15;;;4.20;90.20;;;;;;5094864;28;20227;-68
2021/03/05 02:40:39;;;;;;;16.95;6.55;;;4.40;99.90;;;;;;5094757;28;20179;-69
2021/03/05 02:43:10;;;;;;;20.90;7.70;;;4.60;99.90;;;;;;5093063;28;20188;-69
2021/03/05 02:45:39;;;;;;;16.77;7.90;;;4.10;99.90;;;;;;5094997;28;20620;-68
2021/03/05 02:48:13;;;;;;;10.25;5.50;;;4.20;99.90;;;;;;5094331;28;20168;-68
2021/03/05 02:50:42;;;;;;;19.02;7.15;;;4.40;99.90;;;;;;5094543;28;20587;-68
2021/03/05 02:53:15;;;;;;;15.32;7.45;;;3.80;99.90;;;;;;5094127;28;20191;-68
2021/03/05 02:55:42;;;;;;;20.33;8.18;;;3.70;99.90;;;;;;5094170;28;20629;-68
2021/03/05 02:58:09;;;;;;;18.67;7.90;;;4.10;1.00;;;;;;5094291;28;20556;-68
2021/03/05 03:00:36;;;;;;;17.20;7.05;;;4.40;99.90;;;;;;5094310;28;20175;-69
2021/03/05 03:03:02;;;;;;;21.67;9.70;;;4.40;99.90;;;;;;5093814;28;20243;-69
2021/03/05 03:05:30;;;;;;;24.42;9.18;;;4.50;99.90;;;;;;5093949;28;20168;-69
2021/03/05 03:07:57;;;;;;;18.20;8.02;;;4.30;99.90;;;;;;5094181;28;20241;-69
2021/03/05 03:10:26;;;;;;;25.65;9.20;;;4.50;99.90;;;;;;5094153;28;20179;-69
2021/03/05 03:12:53;;;;;;;19.73;9.77;;;4.60;99.90;;;;;;5093713;28;20183;-68
2021/03/05 03:15:20;;;;;;;28.90;8.45;;;4.20;99.90;;;;;;5093828;28;20198;-69
2021/03/05 03:17:47;;;;;;;19.63;7.75;;;4.50;99.90;;;;;;5093624;28;20274;-68
2021/03/05 03:20:18;;;;;;;21.23;10.32;;;4.50;99.90;;;;;;5093988;28;20174;-69
2021/03/05 03:22:44;;;;;;;19.00;8.50;;;4.60;99.90;;;;;;5093660;28;20210;-69
2021/03/05 03:25:11;;;;;;;25.05;7.60;;;4.50;99.90;;;;;;5093903;28;20241;-68
2021/03/05 03:27:37;;;;;;;21.73;9.70;;;4.60;99.90;;;;;;5093603;28;20224;-69
2021/03/05 03:30:05;;;;;;;25.07;9.97;;;4.50;99.90;;;;;;5093561;28;20167;-67
2021/03/05 03:32:33;;;;;;;22.60;8.57;;;4.20;99.90;;;;;;5093400;28;20563;-69
2021/03/05 03:34:59;;;;;;;19.88;8.88;;;4.10;99.90;;;;;;5093428;28;20171;-69
2021/03/05 03:37:25;;;;;;;20.00;9.37;;;4.50;99.90;;;;;;5093306;28;20245;-68
2021/03/05 03:39:52;;;;;;;17.13;9.50;;;4.60;99.90;;;;;;5093351;28;20397;-69
2021/03/05 03:42:17;;;;;;;20.65;9.63;;;4.70;99.90;;;;;;5093260;28;20175;-68
2021/03/05 03:44:43;;;;;;;26.13;11.03;;;4.60;99.90;;;;;;5093234;28;20629;-69
2021/03/05 03:47:09;;;;;;;22.57;9.80;;;4.50;99.90;;;;;;5093243;28;20256;-68
2021/03/05 03:49:46;;;;;;;22.57;10.87;;;4.10;99.90;;;;;;5093285;28;20637;-68
2021/03/05 03:52:24;;;;;;;24.00;10.57;;;4.30;99.90;;;;;;5093229;28;20190;-69
2021/03/05 03:54:50;;;;;;;29.15;10.43;;;4.60;99.90;;;;;;5093503;28;20167;-69
2021/03/05 03:57:17;;;;;;;23.95;12.20;;;4.70;99.90;;;;;;5093193;28;20201;-68
2021/03/05 03:59:43;;;;;;;26.67;10.77;;;4.60;99.90;;;;;;5093482;28;20171;-69
2021/03/05 04:02:10;;;;;;;19.05;10.77;;;4.70;99.90;;;;;;5093055;28;20193;-69
2021/03/05 04:04:37;;;;;;;24.58;11.98;;;4.70;99.90;;;;;;5093398;28;20167;-68
2021/03/05 04:07:04;;;;;;;23.00;13.20;;;4.70;99.90;;;;;;5092869;28;20179;-68
2021/03/05 04:09:31;;;;;;;20.33;11.75;;;4.80;99.90;;;;;;5093013;28;20168;-69
2021/03/05 04:11:57;;;;;;;28.50;15.88;;;4.90;99.90;;;;;;5092898;28;20273;-68
2021/03/05 04:14:24;;;;;;;27.70;15.00;;;4.80;90.30;;;;;;5093281;28;20548;-69
2021/03/05 04:16:52;;;;;;;24.48;14.25;;;4.90;92.50;;;;;;5093176;28;20578;-69
2021/03/05 04:19:19;;;;;;;31.08;15.68;;;4.80;56.20;;;;;;5093259;28;20229;-68
2021/03/05 04:21:47;;;;;;;27.40;15.95;;;4.80;43.80;;;;;;5092800;28;20187;-69
2021/03/05 04:24:13;;;;;;;27.17;17.30;;;4.60;53.40;;;;;;5092893;28;20167;-69
2021/03/05 04:26:38;;;;;;;28.43;16.87;;;4.70;35.20;;;;;;5092859;28;20254;-69
2021/03/05 04:29:04;;;;;;;28.27;16.77;;;4.60;99.90;;;;;;5092815;28;20728;-69
2021/03/05 04:31:29;;;;;;;24.53;15.13;;;4.30;99.90;;;;;;5093053;28;20714;-69
2021/03/05 04:33:55;;;;;;;26.77;15.87;;;4.30;99.90;;;;;;5093097;28;20484;-69
2021/03/05 04:36:20;;;;;;;25.50;15.03;;;4.40;5.00;;;;;;5092777;28;20644;-69
2021/03/05 04:38:46;;;;;;;27.80;13.90;;;4.50;39.10;;;;;;5092893;28;20187;-68
2021/03/05 04:41:12;;;;;;;28.43;15.93;;;4.50;4.20;;;;;;5092649;28;20266;-69
2021/03/05 04:43:37;;;;;;;23.27;14.80;;;4.50;6.10;;;;;;5092740;28;20246;-68
2021/03/05 04:46:03;;;;;;;24.80;16.00;;;4.50;1.00;;;;;;5092899;28;20167;-68
2021/03/05 04:48:28;;;;;;;21.17;13.77;;;4.60;1.00;;;;;;5092769;28;20216;-68
2021/03/05 04:50:54;;;;;;;24.00;13.40;;;4.60;1.00;;;;;;5093150;28;20175;-68
2021/03/05 04:53:19;;;;;;;20.43;13.43;;;4.50;1.00;;;;;;5092876;28;20225;-68
2021/03/05 04:55:45;;;;;;;18.77;11.70;;;4.50;1.00;;;;;;5092594;28;20220;-69
2021/03/05 04:58:11;;;;;;;21.73;14.47;;;4.50;1.00;;;;;;5095286;28;20195;-69
2021/03/05 05:00:36;;;;;;;21.10;13.90;;;4.50;1.00;;;;;;5096725;28;20171;-69
2021/03/05 05:03:02;;;;;;;22.10;13.67;;;4.50;1.00;;;;;;5096208;28;20202;-68
2021/03/05 05:05:27;;;;;;;23.90;15.93;;;4.40;1.00;;;;;;5096711;28;20167;-68
2021/03/05 05:07:55;;;;;;;23.10;13.80;;;4.40;1.00;;;;;;5096101;28;20232;-69
2021/03/05 05:10:20;;;;;;;23.30;14.23;;;4.50;1.00;;;;;;5096649;28;20199;-69
2021/03/05 05:12:46;;;;;;;21.90;14.57;;;4.40;1.00;;;;;;5096102;28;20598;-68
2021/03/05 05:15:12;;;;;;;23.13;13.90;;;4.60;1.00;;;;;;5096367;28;20176;-68
2021/03/05 05:17:37;;;;;;;27.25;15.93;;;4.50;1.00;;;;;;5096265;28;20567;-68
2021/03/05 05:20:05;;;;;;;24.50;14.90;;;4.40;1.00;;;;;;5096237;28;20166;-68
2021/03/05 05:22:34;;;;;;;22.05;14.77;;;4.40;1.00;;;;;;5096043;28;20214;-68
2021/03/05 05:24:59;;;;;;;25.02;14.60;;;4.60;1.00;;;;;;5096170;28;20175;-69
2021/03/05 05:27:25;;;;;;;22.33;15.13;;;4.70;1.00;;;;;;5095885;28;20724;-68
2021/03/05 05:29:50;;;;;;;24.90;15.20;;;4.70;1.00;;;;;;5095882;28;20195;-69
2021/03/05 05:32:15;;;;;;;25.47;15.80;;;4.30;1.00;;;;;;5095683;28;20227;-69
2021/03/05 05:34:41;;;;;;;21.70;14.60;;;4.50;1.00;;;;;;5095705;28;20189;-69
2021/03/05 05:37:07;;;;;;;22.07;14.13;;;4.40;1.00;;;;;;5096126;28;20481;-68
2021/03/05 05:39:33;;;;;;;20.80;13.80;;;4.30;1.00;;;;;;5095904;28;20171;-68
2021/03/05 05:41:59;;;;;;;25.23;14.57;;;4.50;1.00;;;;;;5095546;28;20187;-68
2021/03/05 05:44:25;;;;;;;22.02;14.55;;;4.60;1.00;;;;;;5095616;28;20171;-69
2021/03/05 05:46:51;;;;;;;18.70;12.20;;;4.30;1.00;;;;;;5095520;28;20172;-68
2021/03/05 05:49:18;;;;;;;22.45;14.35;;;4.50;1.00;;;;;;5095680;28;20183;-69
2021/03/05 05:51:46;;;;;;;19.80;13.38;;;4.30;1.00;;;;;;5095286;28;20278;-69
2021/03/05 05:54:22;;;;;;;20.67;14.43;;;4.20;1.00;;;;;;5095242;28;20183;-68
2021/03/05 05:56:48;;;;;;;20.33;13.10;;;4.50;1.00;;;;;;5095831;28;20527;-68
2021/03/05 05:59:14;;;;;;;21.48;13.10;;;4.30;1.00;;;;;;5095554;28;20187;-68
2021/03/05 06:01:40;;;;;;;17.60;12.40;;;4.40;1.00;;;;;;5095608;28;20199;-68
2021/03/05 06:04:07;;;;;;;21.85;12.50;;;4.20;1.00;;;;;;5095418;28;20402;-68
2021/03/05 06:06:33;;;;;;;16.25;11.20;;;4.60;1.00;;;;;;5095069;28;20246;-68
2021/03/05 06:09:01;;;;;;;16.60;11.50;;;4.60;1.00;;;;;;5094956;28;20267;-68
2021/03/05 06:11:37;;;;;;;15.98;10.65;;;4.60;1.00;;;;;;5095225;28;20199;-68
2021/03/05 06:14:08;;;;;;;17.25;11.05;;;4.60;1.00;;;;;;5094967;28;20171;-68
2021/03/05 06:16:34;;;;;;;16.70;11.93;;;4.90;1.00;;;;;;5094899;28;20187;-68
2021/03/05 06:19:00;;;;;;;17.90;12.03;;;4.90;1.00;;;;;;5094704;28;20285;-68
2021/03/05 06:21:40;;;;;;;14.32;11.07;;;4.60;1.00;;;;;;5095691;28;20435;-69
2021/03/05 06:24:09;;;;;;;17.65;11.13;;;4.70;1.00;;;;;;5095161;28;20241;-67
2021/03/05 06:26:47;;;;;;;16.80;10.60;;;4.70;1.00;;;;;;5093314;28;20648;-69
2021/03/05 06:29:13;;;;;;;19.17;12.20;;;4.70;1.00;;;;;;5093249;28;20273;-68
2021/03/05 06:31:39;;;;;;;14.57;11.10;;;4.40;1.00;;;;;;5094715;28;20624;-69
2021/03/05 06:34:05;;;;;;;14.50;9.70;;;4.30;1.00;;;;;;5094641;28;20384;-68
2021/03/05 06:36:31;;;;;;;15.13;10.50;;;4.60;1.00;;;;;;5094810;28;20259;-68
2021/03/05 06:38:57;;;;;;;13.65;10.45;;;4.60;1.00;;;;;;5094598;28;20192;-68
2021/03/05 06:41:23;;;;;;;15.00;9.90;;;4.60;1.00;;;;;;5094166;28;20233;-68
2021/03/05 06:43:56;;;;;;;14.55;9.88;;;4.50;1.00;;;;;;5094722;28;20376;-68
2021/03/05 06:46:39;;;;;;;16.50;11.20;;;4.60;1.00;;;;;;5094377;28;20518;-68
2021/03/05 06:49:10;;;;;;;16.55;10.52;;;4.50;1.00;;;;;;5094506;28;20517;-69
2021/03/05 06:51:36;;;;;;;17.55;10.20;;;4.50;1.00;;;;;;5094263;28;20556;-68
2021/03/05 06:54:08;;;;;;;16.85;10.63;;;4.40;1.00;;;;;;5094500;28;20315;-69
2021/03/05 06:56:35;;;;;;;13.55;9.88;;;4.10;1.00;;;;;;5094107;28;20183;-68
2021/03/05 06:59:08;;;;;;;14.60;9.77;;;4.10;1.00;;;;;;5093545;28;20187;-68
2021/03/05 07:01:54;;;;;;;17.38;8.88;;;4.20;1.00;;;;;;5093848;28;20617;-68
2021/03/05 07:04:33;;;;;;;15.55;9.95;;;4.30;1.00;;;;;;5093851;28;20627;-69
2021/03/05 07:07:00;;;;;;;15.35;10.15;;;4.20;1.00;;;;;;5093683;28;20170;-69
2021/03/05 07:09:29;;;;;;;13.20;10.10;;;4.30;1.00;;;;;;5093755;28;20171;-68
2021/03/05 07:11:55;;;;;;;13.85;9.63;;;4.40;1.00;;;;;;5093677;28;20199;-68
2021/03/05 07:14:32;;;;;;;15.52;9.15;;;4.40;1.00;;;;;;5093756;28;20175;-68
2021/03/05 07:16:59;;;;;;;12.23;8.73;;;4.50;1.00;;;;;;5093589;28;20166;-69
2021/03/05 07:19:27;;;;;;;17.60;9.10;;;4.50;1.00;;;;;;5092772;28;20164;-70
2021/03/05 07:21:53;;;;;;;10.82;7.72;;;4.40;1.00;;;;;;5093507;28;20278;-68
2021/03/05 07:24:22;;;;;;;13.50;8.23;;;4.40;1.00;;;;;;5093451;28;20168;-69
2021/03/05 07:26:53;;;;;;;14.25;7.72;;;4.40;1.00;;;;;;5093174;28;20163;-69
2021/03/05 07:29:54;;;;;;;12.43;8.88;;;4.50;1.00;;;;;;5093287;28;20506;-69
2021/03/05 07:32:47;;;;;;;14.98;7.90;;;4.50;1.00;;;;;;5093184;28;20271;-68
2021/03/05 07:35:32;;;;;;;12.63;7.35;;;4.40;1.00;;;;;;5089942;28;20183;-68
2021/03/05 07:38:01;;;;;;;26.13;7.13;;;4.40;1.00;;;;;;5091511;28;20210;-69
2021/03/05 07:40:27;;;;;;;8.07;5.43;;;4.60;1.00;;;;;;5093854;28;20730;-68
2021/03/05 07:42:55;;;;;;;7.68;5.53;;;4.30;1.00;;;;;;5093925;28;20195;-69
2021/03/05 07:45:20;;;;;;;7.75;5.68;;;4.30;1.00;;;;;;5092987;28;20245;-69
2021/03/05 07:47:49;;;;;;;12.93;5.97;;;4.50;1.00;;;;;;5093271;28;20183;-69
2021/03/05 07:50:19;;;;;;;8.88;6.20;;;4.80;1.00;;;;;;5092830;28;20262;-69
2021/03/05 07:52:45;;;;;;;8.27;5.90;;;4.80;1.00;;;;;;5093238;28;20675;-69
2021/03/05 07:55:12;;;;;;;11.03;7.00;;;4.70;1.00;;;;;;5092767;28;20179;-69
2021/03/05 07:57:43;;;;;;;20.08;8.38;;;4.50;1.00;;;;;;5092572;28;20443;-69
2021/03/05 08:00:10;;;;;;;8.00;5.95;;;4.60;1.00;;;;;;5091132;28;20171;-69
2021/03/05 08:02:54;;;;;;;10.15;6.80;;;4.50;1.00;;;;;;5092667;28;20183;-69
2021/03/05 08:05:38;;;;;;;22.52;6.72;;;4.60;1.00;;;;;;5092934;28;20194;-69
2021/03/05 08:08:13;;;;;;;8.63;6.07;;;4.40;1.00;;;;;;5092485;28;20183;-69
2021/03/05 08:11:01;;;;;;;18.90;7.47;;;4.50;1.00;;;;;;5092941;28;20181;-69
2021/03/05 08:13:52;;;;;;;9.23;6.15;;;4.60;1.00;;;;;;5092564;28;20183;-69
2021/03/05 08:16:30;;;;;;;8.20;5.95;;;4.40;1.00;;;;;;5093011;28;20159;-68
2021/03/05 08:19:04;;;;;;;13.25;7.55;;;4.60;1.00;;;;;;5092721;28;20194;-68
2021/03/05 08:21:57;;;;;;;10.13;6.13;;;4.70;1.00;;;;;;5093206;28;20194;-69
2021/03/05 08:24:30;;;;;;;9.68;5.60;;;5.00;1.00;;;;;;5092814;28;20562;-69
2021/03/05 08:27:07;;;;;;;9.90;5.75;;;5.00;1.00;;;;;;5092393;28;20189;-68
2021/03/05 08:30:05;;;;;;;14.40;6.03;;;5.20;1.00;;;;;;5092507;28;20633;-67
2021/03/05 08:32:34;;;;;;;8.10;5.50;;;5.10;1.00;;;;;;5094426;28;20195;-68
2021/03/05 08:35:02;;;;;;;7.10;4.97;;;5.00;1.00;;;;;;5096625;28;20163;-68
2021/03/05 08:37:29;;;;;;;27.67;5.80;;;4.90;1.00;;;;;;5096599;28;20603;-68
2021/03/05 08:40:09;;;;;;;10.02;5.72;;;5.10;1.00;;;;;;5096482;28;20240;-68
2021/03/05 08:42:35;;;;;;;8.68;4.80;;;5.10;1.00;;;;;;5096204;28;20183;-68
2021/03/05 08:45:29;;;;;;;7.50;4.60;;;5.00;1.00;;;;;;5096573;28;20694;-69
2021/03/05 08:47:59;;;;;;;10.05;5.90;;;4.80;1.00;;;;;;5093429;28;20395;-68
2021/03/05 08:50:30;;;;;;;11.35;5.38;;;4.80;1.00;;;;;;5096186;28;20175;-69
2021/03/05 08:53:16;;;;;;;8.82;4.30;;;5.20;1.00;;;;;;5096336;28;20187;-69
2021/03/05 08:55:45;;;;;;;9.10;5.22;;;5.30;1.00;;;;;;5096227;28;20164;-68
2021/03/05 08:58:17;;;;;;;9.48;4.55;;;5.40;1.00;;;;;;5095881;28;20307;-68
2021/03/05 09:00:43;;;;;;;10.63;6.25;;;5.80;1.00;;;;;;5095758;28;20171;-68
2021/03/05 09:03:10;;;;;;;7.70;4.85;;;5.80;1.00;;;;;;5096138;28;20171;-68
2021/03/05 09:05:38;;;;;;;21.20;4.32;;;5.70;1.00;;;;;;5096168;28;20163;-68
2021/03/05 09:08:05;;;;;;;14.80;4.32;;;5.60;1.00;;;;;;5096263;28;20563;-69
2021/03/05 09:10:43;;;;;;;20.90;5.22;;;5.60;1.00;;;;;;5096627;28;20254;-68
2021/03/05 09:13:10;;;;;;;15.93;4.85;;;6.00;1.00;;;;;;5096488;28;20179;-69
2021/03/05 09:15:40;;;;;;;31.30;4.95;;;6.10;1.00;;;;;;5096185;28;20246;-68
2021/03/05 09:18:05;;;;;;;24.67;5.05;;;6.40;1.00;;;;;;5096005;28;20198;-69
2021/03/05 09:20:46;;;;;;;7.30;3.97;;;6.20;1.00;;;;;;5095877;28;20168;-69
2021/03/05 09:23:31;;;;;;;11.25;4.10;;;6.00;1.00;;;;;;5095918;28;20465;-69
2021/03/05 09:26:03;;;;;;;8.10;4.65;;;6.30;1.00;;;;;;5095834;28;20174;-68
2021/03/05 09:28:44;;;;;;;7.47;3.95;;;5.80;1.00;;;;;;5095577;28;20155;-69
2021/03/05 09:31:15;;;;;;;14.00;4.65;;;5.40;1.00;;;;;;5095783;28;20183;-69
2021/03/05 09:33:45;;;;;;;5.28;3.30;;;5.20;1.00;;;;;;5095455;28;20187;-69
2021/03/05 09:36:19;;;;;;;9.20;3.50;;;5.60;1.00;;;;;;5095183;28;20175;-69
2021/03/05 09:38:52;;;;;;;13.55;4.65;;;5.90;1.00;;;;;;5095525;28;20244;-67
2021/03/05 09:41:24;;;;;;;7.32;3.85;;;6.20;1.00;;;;;;5095255;28;20188;-69
2021/03/05 09:44:07;;;;;;;6.78;3.30;;;5.90;99.90;;;;;;5094915;28;20152;-68
2021/03/05 09:46:34;;;;;;;14.15;4.05;;;6.50;99.90;;;;;;5093590;28;20160;-67
2021/03/05 09:49:23;;;;;;;5.00;3.80;;;6.80;1.00;;;;;;5094975;28;20175;-68
2021/03/05 09:51:48;;;;;;;11.90;4.20;;;6.90;99.90;;;;;;5095012;28;20187;-70
2021/03/05 09:54:14;;;;;;;6.77;3.33;;;6.40;99.90;;;;;;5094758;28;20176;-67
2021/03/05 09:56:45;;;;;;;5.88;3.42;;;6.90;99.90;;;;;;5095118;28;20206;-69
2021/03/05 09:59:11;;;;;;;4.70;3.20;;;6.50;99.90;;;;;;5093244;28;20191;-69
2021/03/05 10:01:42;;;;;;;6.80;3.35;;;6.60;99.90;;;;;;5095134;28;20194;-69
2021/03/05 10:04:10;;;;;;;8.90;3.05;;;6.70;99.90;;;;;;5094723;28;20200;-68
2021/03/05 10:06:36;;;;;;;10.15;3.05;;;6.20;99.90;;;;;;5095140;28;20198;-69
2021/03/05 10:09:05;;;;;;;5.27;3.20;;;6.70;99.90;;;;;;5095158;28;20183;-69
2021/03/05 10:11:35;;;;;;;5.13;3.60;;;6.70;99.90;;;;;;5095066;28;20240;-69
2021/03/05 10:14:03;;;;;;;9.52;2.88;;;7.20;99.90;;;;;;5095565;28;20163;-68
2021/03/05 10:16:30;;;;;;;10.43;3.90;;;6.60;99.90;;;;;;5094602;28;20216;-68
2021/03/05 10:19:17;;;;;;;4.55;3.30;;;6.90;99.90;;;;;;5094432;28;20195;-69
2021/03/05 10:21:48;;;;;;;12.45;4.32;;;7.40;99.90;;;;;;5094459;28;20195;-68
2021/03/05 10:24:16;;;;;;;4.35;3.67;;;7.20;99.90;;;;;;5094705;28;20258;-68
2021/03/05 10:29:51;;;;;;;4.30;2.72;;;6.40;99.90;;;;;;5095105;28;20558;-69
2021/03/05 10:32:23;;;;;;;7.93;4.22;;;7.30;99.90;;;;;;5094349;28;20222;-69
2021/03/05 10:34:51;;;;;;;10.32;4.07;;;7.00;99.90;;;;;;5094084;28;20199;-67
2021/03/05 10:37:18;;;;;;;12.48;4.88;;;7.20;99.90;;;;;;5094210;28;20632;-69
2021/03/05 10:39:44;;;;;;;10.27;4.88;;;7.80;99.90;;;;;;5094671;28;20207;-68
2021/03/05 10:42:15;;;;;;;7.03;4.30;;;7.50;99.90;;;;;;5094173;28;20194;-69
2021/03/05 10:44:42;;;;;;;4.13;3.38;;;7.80;99.90;;;;;;5094604;28;20612;-68
2021/03/05 10:47:13;;;;;;;4.50;3.33;;;7.60;99.90;;;;;;5094539;28;20184;-69
2021/03/05 10:49:40;;;;;;;7.15;3.40;;;8.00;99.90;;;;;;5095058;28;20162;-68
2021/03/05 10:52:07;;;;;;;21.63;4.60;;;8.50;99.90;;;;;;5094242;28;20187;-68
2021/03/05 10:54:33;;;;;;;6.18;3.63;;;8.00;99.90;;;;;;5093598;28;20578;-69
2021/03/05 10:56:58;;;;;;;11.03;3.53;;;7.90;99.90;;;;;;5094048;28;20230;-68
2021/03/05 10:59:25;;;;;;;6.63;3.70;;;7.30;99.90;;;;;;5093860;28;20481;-68
2021/03/05 11:01:53;;;;;;;13.75;4.07;;;7.20;99.90;;;;;;5093583;28;20190;-69
2021/03/05 11:04:24;;;;;;;4.38;3.67;;;7.20;99.90;;;;;;5093908;28;20201;-68
2021/03/05 11:06:50;;;;;;;6.57;3.90;;;7.30;99.90;;;;;;5093895;28;20159;-68
2021/03/05 11:09:20;;;;;;;6.13;3.80;;;7.50;99.90;;;;;;5093989;28;20156;-69
2021/03/05 11:11:46;;;;;;;11.13;3.70;;;7.10;99.90;;;;;;5093488;28;20290;-68
2021/03/05 11:14:13;;;;;;;6.45;3.78;;;7.80;99.90;;;;;;5094028;28;20284;-68
2021/03/05 11:16:38;;;;;;;4.72;3.88;;;7.70;99.90;;;;;;5094047;28;20596;-68
2021/03/05 11:19:07;;;;;;;6.27;3.80;;;7.50;99.90;;;;;;5094369;28;20191;-69
2021/03/05 11:21:33;;;;;;;9.23;4.05;;;7.30;99.90;;;;;;5094904;28;20418;-69
2021/03/05 11:23:59;;;;;;;10.32;4.38;;;7.50;99.90;;;;;;5095282;28;20171;-68
2021/03/05 11:26:25;;;;;;;4.93;3.28;;;7.70;99.90;;;;;;5094485;28;20232;-68
2021/03/05 11:28:52;;;;;;;5.73;3.40;;;6.90;99.90;;;;;;5092188;28;20176;-68
2021/03/05 11:31:18;;;;;;;9.52;4.13;;;7.20;99.90;;;;;;5093299;28;20559;-69
2021/03/05 11:33:44;;;;;;;4.68;3.25;;;8.00;99.90;;;;;;5093436;28;20168;-69
2021/03/05 11:36:11;;;;;;;5.67;3.20;;;8.50;99.90;;;;;;5092835;28;20532;-68
2021/03/05 11:38:38;;;;;;;3.75;3.35;;;8.30;99.90;;;;;;5092650;28;20445;-68
2021/03/05 11:41:04;;;;;;;8.00;3.53;;;8.40;99.90;;;;;;5093474;28;20250;-68
2021/03/05 11:43:30;;;;;;;6.80;3.37;;;8.50;99.90;;;;;;5093566;28;20246;-68
2021/03/05 11:45:56;;;;;;;5.32;3.63;;;8.40;99.90;;;;;;5092757;28;20202;-68
2021/03/05 11:48:22;;;;;;;6.88;3.50;;;7.70;99.90;;;;;;5093193;28;20229;-69
2021/03/05 11:50:48;;;;;;;4.90;3.90;;;7.70;99.90;;;;;;5092529;28;20284;-68
2021/03/05 11:53:13;;;;;;;6.65;3.38;;;7.80;99.90;;;;;;5093297;28;20172;-68
2021/03/05 11:55:39;;;;;;;10.83;3.37;;;7.70;99.90;;;;;;5093293;28;20250;-70
2021/03/05 11:58:05;;;;;;;4.57;3.80;;;8.20;99.90;;;;;;5093508;28;20223;-68
2021/03/05 12:00:30;;;;;;;5.97;4.27;;;8.20;99.90;;;;;;5094074;28;20193;-68
2021/03/05 12:02:56;;;;;;;5.30;3.47;;;8.20;99.90;;;;;;5092850;28;20666;-68
2021/03/05 12:05:22;;;;;;;9.57;3.80;;;7.80;99.90;;;;;;5093196;28;20741;-68
2021/03/05 12:07:48;;;;;;;5.20;3.72;;;7.30;99.90;;;;;;5093130;28;20269;-68
2021/03/05 12:10:13;;;;;;;7.53;4.40;;;7.10;99.90;;;;;;5093062;28;20676;-68
2021/03/05 12:12:39;;;;;;;11.07;3.23;;;7.40;99.90;;;;;;5092971;28;20187;-68
2021/03/05 12:15:05;;;;;;;39.80;5.40;;;7.60;99.90;;;;;;5092828;28;20413;-67
2021/03/05 12:17:31;;;;;;;6.18;3.22;;;8.10;99.90;;;;;;5092668;28;20199;-69
2021/03/05 12:19:57;;;;;;;18.73;4.87;;;8.40;99.90;;;;;;5092855;28;20175;-68
2021/03/05 12:22:23;;;;;;;6.50;4.20;;;8.90;99.90;;;;;;5092813;28;20190;-68
2021/03/05 12:24:48;;;;;;;5.53;4.23;;;8.90;99.90;;;;;;5092742;28;20612;-68
2021/03/05 12:27:14;;;;;;;11.00;4.30;;;8.80;99.90;;;;;;5093219;28;20174;-67
2021/03/05 12:29:39;;;;;;;12.70;4.10;;;9.00;99.90;;;;;;5093276;28;20203;-68
2021/03/05 12:32:06;;;;;;;8.43;4.27;;;8.40;99.90;;;;;;5092522;28;20192;-68
2021/03/05 12:34:31;;;;;;;3.75;2.70;;;8.80;99.90;;;;;;5092412;28;20695;-67
2021/03/05 12:36:57;;;;;;;7.90;4.03;;;8.60;99.90;;;;;;5092770;28;20203;-68
2021/03/05 12:39:22;;;;;;;6.10;3.83;;;9.30;99.90;;;;;;5092714;28;20230;-67
2021/03/05 12:41:48;;;;;;;11.33;3.80;;;9.50;99.90;;;;;;5092887;28;20215;-69
2021/03/05 12:44:13;;;;;;;8.67;3.20;;;9.20;99.90;;;;;;5092991;28;20176;-69
2021/03/05 12:46:39;;;;;;;5.80;3.57;;;9.50;99.90;;;;;;5093611;28;20196;-68
2021/03/05 12:49:05;;;;;;;13.63;3.80;;;9.00;99.90;;;;;;5092438;28;20536;-68
2021/03/05 12:51:31;;;;;;;7.23;3.00;;;9.80;99.90;;;;;;5092163;28;20426;-68
2021/03/05 12:53:56;;;;;;;8.90;3.97;;;9.30;99.90;;;;;;5092549;28;20224;-68
2021/03/05 12:56:22;;;;;;;6.33;3.47;;;9.50;99.90;;;;;;5092454;28;20228;-68
2021/03/05 12:58:47;;;;;;;4.83;2.67;;;10.00;99.90;;;;;;5092295;28;20242;-69
2021/03/05 13:01:13;;;;;;;4.63;3.43;;;8.90;99.90;;;;;;5092636;28;20192;-68
2021/03/05 13:03:39;;;;;;;11.70;3.73;;;9.40;99.90;;;;;;5092112;28;20181;-69